sensor_id;sensor_type;location;lat;lon;timestamp;pressure;altitude;pressure_sealevel;temperature;humidity
18500;BME280;9379;52.134;11.576;2023-07-20T00:01:50;100505.66;;;21.11;92.15
18500;BME280;9379;52.134;11.576;2023-07-20T00:04:17;100507.09;;;21.01;93.16
18500;BME280;9379;52.134;11.576;2023-07-20T00:06:44;100498.19;;;21.40;90.18
18500;BME280;9379;52.134;11.576;2023-07-20T00:09:12;100502.28;;;20.76;93.07
18500;BME280;9379;52.134;11.576;2023-07-20T00:11:39;100498.88;;;20.54;93.68
18500;BME280;9379;52.134;11.576;2023-07-20T00:14:06;100495.88;;;20.36;94.40
18500;BME280;9379;52.134;11.576;2023-07-20T00:16:33;100498.22;;;20.46;94.63
18500;BME280;9379;52.134;11.576;2023-07-20T00:19:00;100506.44;;;20.31;95.30
18500;BME280;9379;52.134;11.576;2023-07-20T00:21:27;100510.34;;;20.63;94.08
18500;BME280;9379;52.134;11.576;2023-07-20T00:23:53;100511.00;;;20.30;94.64
18500;BME280;9379;52.134;11.576;2023-07-20T00:26:21;100509.09;;;20.24;95.84
18500;BME280;9379;52.134;11.576;2023-07-20T00:28:49;100514.44;;;20.11;94.92
18500;BME280;9379;52.134;11.576;2023-07-20T00:31:16;100520.41;;;20.00;95.03
18500;BME280;9379;52.134;11.576;2023-07-20T00:33:43;100511.69;;;19.98;95.31
18500;BME280;9379;52.134;11.576;2023-07-20T00:36:10;100519.84;;;20.11;95.16
18500;BME280;9379;52.134;11.576;2023-07-20T00:38:36;100513.81;;;20.09;93.95
18500;BME280;9379;52.134;11.576;2023-07-20T00:41:03;100515.00;;;20.00;93.97
18500;BME280;9379;52.134;11.576;2023-07-20T00:43:31;100506.88;;;19.93;94.79
18500;BME280;9379;52.134;11.576;2023-07-20T00:45:58;100512.13;;;20.43;91.61
18500;BME280;9379;52.134;11.576;2023-07-20T00:48:26;100523.28;;;19.92;93.47
18500;BME280;9379;52.134;11.576;2023-07-20T00:50:52;100531.78;;;19.67;94.54
18500;BME280;9379;52.134;11.576;2023-07-20T00:53:19;100525.03;;;19.78;94.86
18500;BME280;9379;52.134;11.576;2023-07-20T00:55:46;100520.72;;;19.84;94.24
18500;BME280;9379;52.134;11.576;2023-07-20T00:58:14;100520.66;;;20.11;93.30
18500;BME280;9379;52.134;11.576;2023-07-20T01:00:42;100523.38;;;20.11;93.44
18500;BME280;9379;52.134;11.576;2023-07-20T01:03:08;100526.41;;;19.95;92.79
18500;BME280;9379;52.134;11.576;2023-07-20T01:05:40;100528.63;;;19.85;93.60
18500;BME280;9379;52.134;11.576;2023-07-20T01:08:12;100532.91;;;19.79;93.15
18500;BME280;9379;52.134;11.576;2023-07-20T01:10:44;100531.38;;;19.98;93.00
18500;BME280;9379;52.134;11.576;2023-07-20T01:13:15;100528.97;;;19.75;93.58
18500;BME280;9379;52.134;11.576;2023-07-20T01:15:50;100537.09;;;19.82;93.68
18500;BME280;9379;52.134;11.576;2023-07-20T01:18:17;100520.59;;;19.98;92.84
18500;BME280;9379;52.134;11.576;2023-07-20T01:20:44;100534.06;;;20.74;87.67
18500;BME280;9379;52.134;11.576;2023-07-20T01:23:41;100529.50;;;20.75;88.07
18500;BME280;9379;52.134;11.576;2023-07-20T01:29:43;100530.56;;;20.87;86.72
18500;BME280;9379;52.134;11.576;2023-07-20T01:32:17;100533.47;;;20.92;85.68
18500;BME280;9379;52.134;11.576;2023-07-20T01:34:46;100529.00;;;20.51;87.91
18500;BME280;9379;52.134;11.576;2023-07-20T01:37:15;100528.00;;;20.72;87.94
18500;BME280;9379;52.134;11.576;2023-07-20T01:39:45;100528.38;;;20.49;87.42
18500;BME280;9379;52.134;11.576;2023-07-20T01:42:12;100535.94;;;20.74;85.77
18500;BME280;9379;52.134;11.576;2023-07-20T01:44:39;100536.19;;;19.68;91.08
18500;BME280;9379;52.134;11.576;2023-07-20T01:47:06;100532.59;;;19.40;92.59
18500;BME280;9379;52.134;11.576;2023-07-20T01:49:34;100532.16;;;19.36;93.27
18500;BME280;9379;52.134;11.576;2023-07-20T01:52:00;100541.91;;;19.59;91.95
18500;BME280;9379;52.134;11.576;2023-07-20T01:54:27;100542.97;;;19.64;91.68
18500;BME280;9379;52.134;11.576;2023-07-20T01:56:54;100540.88;;;19.60;92.56
18500;BME280;9379;52.134;11.576;2023-07-20T01:59:21;100545.75;;;19.49;92.50
18500;BME280;9379;52.134;11.576;2023-07-20T02:01:47;100540.25;;;19.58;91.76
18500;BME280;9379;52.134;11.576;2023-07-20T02:04:14;100546.47;;;19.58;91.29
18500;BME280;9379;52.134;11.576;2023-07-20T02:06:42;100540.56;;;19.48;92.46
18500;BME280;9379;52.134;11.576;2023-07-20T02:09:09;100532.91;;;19.51;91.58
18500;BME280;9379;52.134;11.576;2023-07-20T02:11:36;100536.72;;;19.14;93.87
18500;BME280;9379;52.134;11.576;2023-07-20T02:14:02;100550.31;;;19.28;94.01
18500;BME280;9379;52.134;11.576;2023-07-20T02:16:29;100548.47;;;19.28;94.01
18500;BME280;9379;52.134;11.576;2023-07-20T02:18:56;100548.63;;;19.48;93.54
18500;BME280;9379;52.134;11.576;2023-07-20T02:21:23;100541.63;;;19.53;93.03
18500;BME280;9379;52.134;11.576;2023-07-20T02:23:51;100543.91;;;20.13;89.26
18500;BME280;9379;52.134;11.576;2023-07-20T02:26:18;100554.50;;;20.42;88.35
18500;BME280;9379;52.134;11.576;2023-07-20T02:28:45;100551.28;;;19.63;89.72
18500;BME280;9379;52.134;11.576;2023-07-20T02:31:11;100559.47;;;19.54;91.88
18500;BME280;9379;52.134;11.576;2023-07-20T02:33:38;100557.16;;;19.09;93.35
18500;BME280;9379;52.134;11.576;2023-07-20T02:36:05;100559.75;;;19.17;92.93
18500;BME280;9379;52.134;11.576;2023-07-20T02:38:32;100557.63;;;19.12;93.32
18500;BME280;9379;52.134;11.576;2023-07-20T02:41:00;100557.69;;;19.40;92.88
18500;BME280;9379;52.134;11.576;2023-07-20T02:43:26;100557.66;;;19.34;92.69
18500;BME280;9379;52.134;11.576;2023-07-20T02:45:53;100562.94;;;19.06;93.41
18500;BME280;9379;52.134;11.576;2023-07-20T02:48:20;100571.91;;;18.91;94.56
18500;BME280;9379;52.134;11.576;2023-07-20T02:50:47;100569.94;;;19.00;94.73
18500;BME280;9379;52.134;11.576;2023-07-20T02:53:14;100562.72;;;18.86;94.91
18500;BME280;9379;52.134;11.576;2023-07-20T02:55:40;100566.34;;;18.93;94.55
18500;BME280;9379;52.134;11.576;2023-07-20T02:58:08;100556.59;;;19.13;93.41
18500;BME280;9379;52.134;11.576;2023-07-20T03:00:35;100559.81;;;19.02;94.30
18500;BME280;9379;52.134;11.576;2023-07-20T03:03:02;100564.38;;;18.65;95.45
18500;BME280;9379;52.134;11.576;2023-07-20T03:05:29;100558.50;;;18.77;95.29
18500;BME280;9379;52.134;11.576;2023-07-20T03:07:56;100571.41;;;19.03;94.19
18500;BME280;9379;52.134;11.576;2023-07-20T03:10:22;100566.53;;;18.91;94.21
18500;BME280;9379;52.134;11.576;2023-07-20T03:12:49;100568.84;;;18.94;93.53
18500;BME280;9379;52.134;11.576;2023-07-20T03:15:17;100573.47;;;19.01;94.26
18500;BME280;9379;52.134;11.576;2023-07-20T03:17:44;100557.56;;;19.06;93.96
18500;BME280;9379;52.134;11.576;2023-07-20T03:20:11;100571.47;;;19.09;93.59
18500;BME280;9379;52.134;11.576;2023-07-20T03:22:38;100574.66;;;18.98;94.13
18500;BME280;9379;52.134;11.576;2023-07-20T03:25:05;100575.44;;;18.92;94.42
18500;BME280;9379;52.134;11.576;2023-07-20T03:27:32;100584.47;;;18.84;94.74
18500;BME280;9379;52.134;11.576;2023-07-20T03:29:59;100572.03;;;18.83;95.02
18500;BME280;9379;52.134;11.576;2023-07-20T03:32:27;100580.56;;;18.87;94.04
18500;BME280;9379;52.134;11.576;2023-07-20T03:34:54;100579.06;;;18.84;94.11
18500;BME280;9379;52.134;11.576;2023-07-20T03:37:21;100578.81;;;18.79;95.32
18500;BME280;9379;52.134;11.576;2023-07-20T03:39:50;100586.09;;;19.00;94.88
18500;BME280;9379;52.134;11.576;2023-07-20T03:42:17;100590.19;;;18.96;94.98
18500;BME280;9379;52.134;11.576;2023-07-20T03:44:44;100576.34;;;19.20;94.00
18500;BME280;9379;52.134;11.576;2023-07-20T03:47:10;100594.00;;;19.02;93.94
18500;BME280;9379;52.134;11.576;2023-07-20T03:49:39;100581.16;;;19.04;94.37
18500;BME280;9379;52.134;11.576;2023-07-20T03:52:06;100583.06;;;19.10;94.45
18500;BME280;9379;52.134;11.576;2023-07-20T03:54:33;100584.06;;;19.23;93.07
18500;BME280;9379;52.134;11.576;2023-07-20T03:56:59;100585.50;;;18.83;94.84
18500;BME280;9379;52.134;11.576;2023-07-20T03:59:27;100588.78;;;19.21;93.82
18500;BME280;9379;52.134;11.576;2023-07-20T04:01:53;100591.25;;;18.80;95.41
18500;BME280;9379;52.134;11.576;2023-07-20T04:04:20;100590.97;;;18.75;95.38
18500;BME280;9379;52.134;11.576;2023-07-20T04:06:48;100604.28;;;18.77;95.55
18500;BME280;9379;52.134;11.576;2023-07-20T04:09:15;100597.38;;;18.74;95.48
18500;BME280;9379;52.134;11.576;2023-07-20T04:11:42;100595.38;;;19.34;93.12
18500;BME280;9379;52.134;11.576;2023-07-20T04:14:08;100600.69;;;19.27;93.52
18500;BME280;9379;52.134;11.576;2023-07-20T04:16:35;100601.91;;;19.46;93.52
18500;BME280;9379;52.134;11.576;2023-07-20T04:19:02;100585.41;;;19.34;92.75
18500;BME280;9379;52.134;11.576;2023-07-20T04:21:29;100591.53;;;19.92;90.16
18500;BME280;9379;52.134;11.576;2023-07-20T04:23:57;100593.72;;;20.10;89.24
18500;BME280;9379;52.134;11.576;2023-07-20T04:26:24;100589.75;;;19.78;89.87
18500;BME280;9379;52.134;11.576;2023-07-20T04:28:51;100604.22;;;19.98;89.02
18500;BME280;9379;52.134;11.576;2023-07-20T04:31:18;100606.28;;;19.26;92.52
18500;BME280;9379;52.134;11.576;2023-07-20T04:33:45;100604.78;;;19.44;91.55
18500;BME280;9379;52.134;11.576;2023-07-20T04:36:11;100600.59;;;19.85;89.40
18500;BME280;9379;52.134;11.576;2023-07-20T04:38:40;100602.72;;;20.17;89.10
18500;BME280;9379;52.134;11.576;2023-07-20T04:41:08;100591.78;;;20.32;86.31
18500;BME280;9379;52.134;11.576;2023-07-20T04:43:41;100596.50;;;20.58;85.64
18500;BME280;9379;52.134;11.576;2023-07-20T04:46:08;100594.91;;;19.30;92.14
18500;BME280;9379;52.134;11.576;2023-07-20T04:48:35;100597.72;;;19.01;93.71
18500;BME280;9379;52.134;11.576;2023-07-20T04:51:02;100602.72;;;18.68;95.19
18500;BME280;9379;52.134;11.576;2023-07-20T04:53:29;100593.47;;;18.62;95.47
18500;BME280;9379;52.134;11.576;2023-07-20T04:55:56;100604.03;;;18.93;94.62
18500;BME280;9379;52.134;11.576;2023-07-20T04:58:24;100606.94;;;18.91;94.61
18500;BME280;9379;52.134;11.576;2023-07-20T05:00:51;100598.28;;;18.96;94.28
18500;BME280;9379;52.134;11.576;2023-07-20T05:03:18;100610.63;;;19.27;94.25
18500;BME280;9379;52.134;11.576;2023-07-20T05:05:46;100604.97;;;19.21;93.89
18500;BME280;9379;52.134;11.576;2023-07-20T05:08:13;100601.38;;;20.06;90.38
18500;BME280;9379;52.134;11.576;2023-07-20T05:10:41;100592.47;;;20.40;87.77
18500;BME280;9379;52.134;11.576;2023-07-20T05:13:08;100597.84;;;20.75;85.97
18500;BME280;9379;52.134;11.576;2023-07-20T05:15:36;100598.34;;;21.05;84.08
18500;BME280;9379;52.134;11.576;2023-07-20T05:18:03;100599.19;;;20.51;87.88
18500;BME280;9379;52.134;11.576;2023-07-20T05:20:29;100600.44;;;20.55;87.49
18500;BME280;9379;52.134;11.576;2023-07-20T05:22:58;100601.56;;;20.33;86.60
18500;BME280;9379;52.134;11.576;2023-07-20T05:25:25;100606.84;;;20.48;85.49
18500;BME280;9379;52.134;11.576;2023-07-20T05:27:52;100595.22;;;20.47;86.93
18500;BME280;9379;52.134;11.576;2023-07-20T05:30:21;100602.06;;;20.15;86.77
18500;BME280;9379;52.134;11.576;2023-07-20T05:32:49;100599.47;;;20.63;84.31
18500;BME280;9379;52.134;11.576;2023-07-20T05:35:17;100597.97;;;21.15;82.18
18500;BME280;9379;52.134;11.576;2023-07-20T05:37:44;100603.53;;;21.00;82.83
18500;BME280;9379;52.134;11.576;2023-07-20T05:40:12;100607.91;;;21.01;82.72
18500;BME280;9379;52.134;11.576;2023-07-20T05:42:40;100610.88;;;20.65;84.56
18500;BME280;9379;52.134;11.576;2023-07-20T05:45:07;100602.41;;;20.75;82.42
18500;BME280;9379;52.134;11.576;2023-07-20T05:47:34;100604.59;;;20.99;82.06
18500;BME280;9379;52.134;11.576;2023-07-20T05:50:02;100606.91;;;21.09;81.26
18500;BME280;9379;52.134;11.576;2023-07-20T05:52:29;100611.97;;;20.77;83.63
18500;BME280;9379;52.134;11.576;2023-07-20T05:54:56;100619.13;;;20.98;81.54
18500;BME280;9379;52.134;11.576;2023-07-20T05:57:23;100619.59;;;21.15;81.43
18500;BME280;9379;52.134;11.576;2023-07-20T05:59:49;100624.88;;;20.82;82.80
18500;BME280;9379;52.134;11.576;2023-07-20T06:02:16;100615.94;;;20.40;84.14
18500;BME280;9379;52.134;11.576;2023-07-20T06:04:43;100620.09;;;20.77;84.41
18500;BME280;9379;52.134;11.576;2023-07-20T06:07:11;100621.53;;;20.80;83.96
18500;BME280;9379;52.134;11.576;2023-07-20T06:09:38;100623.06;;;20.95;82.04
18500;BME280;9379;52.134;11.576;2023-07-20T06:12:06;100625.69;;;20.82;81.15
18500;BME280;9379;52.134;11.576;2023-07-20T06:14:32;100623.56;;;20.64;84.12
18500;BME280;9379;52.134;11.576;2023-07-20T06:16:59;100617.50;;;20.56;82.48
18500;BME280;9379;52.134;11.576;2023-07-20T06:19:26;100630.47;;;20.74;82.46
18500;BME280;9379;52.134;11.576;2023-07-20T06:21:53;100623.69;;;20.50;84.21
18500;BME280;9379;52.134;11.576;2023-07-20T06:24:21;100622.66;;;20.51;83.31
18500;BME280;9379;52.134;11.576;2023-07-20T06:26:47;100620.22;;;20.62;82.20
18500;BME280;9379;52.134;11.576;2023-07-20T06:29:14;100634.72;;;20.96;83.20
18500;BME280;9379;52.134;11.576;2023-07-20T06:31:41;100637.38;;;20.20;86.36
18500;BME280;9379;52.134;11.576;2023-07-20T06:34:08;100637.78;;;20.86;85.52
18500;BME280;9379;52.134;11.576;2023-07-20T06:36:34;100646.53;;;20.26;86.50
18500;BME280;9379;52.134;11.576;2023-07-20T06:39:02;100633.00;;;20.47;85.11
18500;BME280;9379;52.134;11.576;2023-07-20T06:41:30;100636.84;;;21.07;81.52
18500;BME280;9379;52.134;11.576;2023-07-20T06:43:56;100639.72;;;20.58;85.19
18500;BME280;9379;52.134;11.576;2023-07-20T06:46:24;100641.19;;;21.15;81.35
18500;BME280;9379;52.134;11.576;2023-07-20T06:48:51;100632.88;;;21.16;79.87
18500;BME280;9379;52.134;11.576;2023-07-20T06:51:18;100641.34;;;21.81;77.50
18500;BME280;9379;52.134;11.576;2023-07-20T06:53:45;100641.78;;;20.49;83.74
18500;BME280;9379;52.134;11.576;2023-07-20T06:56:12;100642.44;;;21.12;79.75
18500;BME280;9379;52.134;11.576;2023-07-20T06:58:40;100643.97;;;21.28;81.89
18500;BME280;9379;52.134;11.576;2023-07-20T07:01:07;100643.00;;;21.55;79.14
18500;BME280;9379;52.134;11.576;2023-07-20T07:03:34;100633.28;;;21.07;81.50
18500;BME280;9379;52.134;11.576;2023-07-20T07:06:02;100644.44;;;21.51;78.99
18500;BME280;9379;52.134;11.576;2023-07-20T07:08:29;100630.53;;;22.01;76.68
18500;BME280;9379;52.134;11.576;2023-07-20T07:10:55;100632.78;;;21.44;78.55
18500;BME280;9379;52.134;11.576;2023-07-20T07:13:22;100632.59;;;21.46;79.79
18500;BME280;9379;52.134;11.576;2023-07-20T07:15:51;100639.97;;;20.63;80.59
18500;BME280;9379;52.134;11.576;2023-07-20T07:18:18;100639.19;;;20.76;82.34
18500;BME280;9379;52.134;11.576;2023-07-20T07:20:54;100634.03;;;21.42;78.74
18500;BME280;9379;52.134;11.576;2023-07-20T07:23:21;100639.69;;;21.53;77.46
18500;BME280;9379;52.134;11.576;2023-07-20T07:25:48;100645.69;;;21.42;77.74
18500;BME280;9379;52.134;11.576;2023-07-20T07:28:15;100634.06;;;21.81;76.45
18500;BME280;9379;52.134;11.576;2023-07-20T07:30:42;100632.34;;;21.41;77.99
18500;BME280;9379;52.134;11.576;2023-07-20T07:33:10;100624.25;;;21.34;79.71
18500;BME280;9379;52.134;11.576;2023-07-20T07:35:37;100639.25;;;21.57;77.92
18500;BME280;9379;52.134;11.576;2023-07-20T07:38:05;100638.78;;;21.40;81.10
18500;BME280;9379;52.134;11.576;2023-07-20T07:40:34;100634.22;;;21.40;82.76
18500;BME280;9379;52.134;11.576;2023-07-20T07:43:00;100640.28;;;21.49;80.60
18500;BME280;9379;52.134;11.576;2023-07-20T07:45:27;100635.09;;;21.74;80.22
18500;BME280;9379;52.134;11.576;2023-07-20T07:47:54;100638.44;;;21.56;79.67
18500;BME280;9379;52.134;11.576;2023-07-20T07:50:22;100636.34;;;21.91;78.67
18500;BME280;9379;52.134;11.576;2023-07-20T07:52:49;100640.91;;;21.97;81.49
18500;BME280;9379;52.134;11.576;2023-07-20T07:55:16;100645.66;;;21.36;80.26
18500;BME280;9379;52.134;11.576;2023-07-20T07:57:43;100649.25;;;21.56;77.28
18500;BME280;9379;52.134;11.576;2023-07-20T08:00:10;100649.63;;;21.53;78.25
18500;BME280;9379;52.134;11.576;2023-07-20T08:02:40;100653.00;;;21.81;79.16
18500;BME280;9379;52.134;11.576;2023-07-20T08:05:07;100651.13;;;21.82;79.04
18500;BME280;9379;52.134;11.576;2023-07-20T08:07:36;100659.88;;;21.77;79.04
18500;BME280;9379;52.134;11.576;2023-07-20T08:10:03;100672.78;;;21.89;76.32
18500;BME280;9379;52.134;11.576;2023-07-20T08:12:30;100662.53;;;21.64;78.47
18500;BME280;9379;52.134;11.576;2023-07-20T08:14:57;100674.63;;;21.62;76.40
18500;BME280;9379;52.134;11.576;2023-07-20T08:17:24;100674.00;;;21.60;77.45
18500;BME280;9379;52.134;11.576;2023-07-20T08:19:50;100671.72;;;21.57;77.97
18500;BME280;9379;52.134;11.576;2023-07-20T08:22:17;100664.63;;;21.49;78.50
18500;BME280;9379;52.134;11.576;2023-07-20T08:24:46;100670.88;;;21.56;79.42
18500;BME280;9379;52.134;11.576;2023-07-20T08:27:13;100673.97;;;20.92;80.58
18500;BME280;9379;52.134;11.576;2023-07-20T08:29:39;100664.16;;;20.43;82.02
18500;BME280;9379;52.134;11.576;2023-07-20T08:32:06;100668.09;;;20.82;81.83
18500;BME280;9379;52.134;11.576;2023-07-20T08:34:33;100673.13;;;21.39;77.96
18500;BME280;9379;52.134;11.576;2023-07-20T08:37:00;100672.09;;;21.47;77.40
18500;BME280;9379;52.134;11.576;2023-07-20T08:39:27;100681.19;;;21.26;79.42
18500;BME280;9379;52.134;11.576;2023-07-20T08:41:55;100691.88;;;21.06;80.72
18500;BME280;9379;52.134;11.576;2023-07-20T08:44:24;100685.13;;;20.82;81.76
18500;BME280;9379;52.134;11.576;2023-07-20T08:46:53;100686.75;;;21.18;80.39
18500;BME280;9379;52.134;11.576;2023-07-20T08:49:20;100683.72;;;20.86;81.66
18500;BME280;9379;52.134;11.576;2023-07-20T08:51:48;100695.31;;;20.80;82.62
18500;BME280;9379;52.134;11.576;2023-07-20T08:54:15;100691.31;;;21.17;81.56
18500;BME280;9379;52.134;11.576;2023-07-20T08:56:44;100694.75;;;21.33;80.69
18500;BME280;9379;52.134;11.576;2023-07-20T08:59:16;100699.31;;;20.91;80.51
18500;BME280;9379;52.134;11.576;2023-07-20T09:01:44;100695.88;;;21.10;80.67
18500;BME280;9379;52.134;11.576;2023-07-20T09:04:11;100699.16;;;21.06;80.43
18500;BME280;9379;52.134;11.576;2023-07-20T09:06:38;100696.84;;;21.44;82.97
18500;BME280;9379;52.134;11.576;2023-07-20T09:09:06;100683.41;;;21.09;84.87
18500;BME280;9379;52.134;11.576;2023-07-20T09:11:32;100694.31;;;20.88;83.43
18500;BME280;9379;52.134;11.576;2023-07-20T09:14:03;100686.94;;;21.16;83.23
18500;BME280;9379;52.134;11.576;2023-07-20T09:16:32;100684.28;;;20.75;84.95
18500;BME280;9379;52.134;11.576;2023-07-20T09:18:59;100682.91;;;21.47;83.06
18500;BME280;9379;52.134;11.576;2023-07-20T09:21:29;100688.25;;;21.27;84.24
18500;BME280;9379;52.134;11.576;2023-07-20T09:23:57;100688.59;;;21.92;79.47
18500;BME280;9379;52.134;11.576;2023-07-20T09:26:23;100688.16;;;21.68;79.96
18500;BME280;9379;52.134;11.576;2023-07-20T09:28:52;100690.13;;;20.79;83.29
18500;BME280;9379;52.134;11.576;2023-07-20T09:31:20;100687.31;;;21.07;81.76
18500;BME280;9379;52.134;11.576;2023-07-20T09:33:50;100690.66;;;21.57;80.71
18500;BME280;9379;52.134;11.576;2023-07-20T09:36:18;100685.66;;;21.60;80.71
18500;BME280;9379;52.134;11.576;2023-07-20T09:38:45;100697.50;;;20.98;84.61
18500;BME280;9379;52.134;11.576;2023-07-20T09:41:13;100693.94;;;21.52;81.97
18500;BME280;9379;52.134;11.576;2023-07-20T09:43:40;100695.44;;;21.54;78.64
18500;BME280;9379;52.134;11.576;2023-07-20T09:46:07;100693.50;;;21.35;78.51
18500;BME280;9379;52.134;11.576;2023-07-20T09:48:35;100699.38;;;21.59;76.32
18500;BME280;9379;52.134;11.576;2023-07-20T09:51:03;100691.63;;;21.36;76.20
18500;BME280;9379;52.134;11.576;2023-07-20T09:53:32;100703.13;;;21.64;77.75
18500;BME280;9379;52.134;11.576;2023-07-20T09:56:00;100693.13;;;21.65;78.83
18500;BME280;9379;52.134;11.576;2023-07-20T09:58:27;100702.75;;;21.94;74.18
18500;BME280;9379;52.134;11.576;2023-07-20T10:00:56;100697.19;;;22.15;70.50
18500;BME280;9379;52.134;11.576;2023-07-20T10:03:29;100697.56;;;22.32;69.96
18500;BME280;9379;52.134;11.576;2023-07-20T10:06:00;100692.81;;;23.12;73.54
18500;BME280;9379;52.134;11.576;2023-07-20T10:08:29;100699.78;;;22.81;70.35
18500;BME280;9379;52.134;11.576;2023-07-20T10:10:57;100685.94;;;23.09;70.08
18500;BME280;9379;52.134;11.576;2023-07-20T10:13:26;100697.16;;;22.22;70.78
18500;BME280;9379;52.134;11.576;2023-07-20T10:15:56;100692.34;;;22.50;72.05
18500;BME280;9379;52.134;11.576;2023-07-20T10:18:27;100677.59;;;22.26;73.00
18500;BME280;9379;52.134;11.576;2023-07-20T10:20:56;100691.00;;;22.79;68.46
18500;BME280;9379;52.134;11.576;2023-07-20T10:23:28;100686.22;;;22.94;68.59
18500;BME280;9379;52.134;11.576;2023-07-20T10:25:57;100693.69;;;23.06;70.97
18500;BME280;9379;52.134;11.576;2023-07-20T10:28:25;100687.44;;;23.43;69.56
18500;BME280;9379;52.134;11.576;2023-07-20T10:30:53;100679.16;;;22.87;67.26
18500;BME280;9379;52.134;11.576;2023-07-20T10:33:20;100691.09;;;22.59;63.15
18500;BME280;9379;52.134;11.576;2023-07-20T10:35:51;100667.84;;;22.96;63.98
18500;BME280;9379;52.134;11.576;2023-07-20T10:38:18;100686.63;;;22.98;68.41
18500;BME280;9379;52.134;11.576;2023-07-20T10:40:54;100696.13;;;22.23;65.65
18500;BME280;9379;52.134;11.576;2023-07-20T10:43:21;100690.69;;;22.49;66.28
18500;BME280;9379;52.134;11.576;2023-07-20T10:45:49;100684.81;;;23.68;63.29
18500;BME280;9379;52.134;11.576;2023-07-20T10:48:17;100681.22;;;24.49;61.92
18500;BME280;9379;52.134;11.576;2023-07-20T10:50:46;100657.34;;;24.88;57.25
18500;BME280;9379;52.134;11.576;2023-07-20T10:53:14;100674.75;;;25.65;57.62
18500;BME280;9379;52.134;11.576;2023-07-20T10:55:42;100666.72;;;25.28;56.65
18500;BME280;9379;52.134;11.576;2023-07-20T10:58:15;100671.66;;;23.97;61.07
18500;BME280;9379;52.134;11.576;2023-07-20T11:00:56;100672.44;;;23.72;63.07
18500;BME280;9379;52.134;11.576;2023-07-20T11:03:29;100678.81;;;23.84;58.01
18500;BME280;9379;52.134;11.576;2023-07-20T11:05:57;100662.94;;;23.88;61.39
18500;BME280;9379;52.134;11.576;2023-07-20T11:08:38;100673.97;;;25.16;60.89
18500;BME280;9379;52.134;11.576;2023-07-20T11:11:22;100665.63;;;25.59;56.47
18500;BME280;9379;52.134;11.576;2023-07-20T11:14:00;100666.88;;;24.17;60.93
18500;BME280;9379;52.134;11.576;2023-07-20T11:16:35;100661.84;;;24.46;59.51
18500;BME280;9379;52.134;11.576;2023-07-20T11:19:02;100659.78;;;24.16;58.83
18500;BME280;9379;52.134;11.576;2023-07-20T11:21:35;100645.34;;;24.95;57.43
18500;BME280;9379;52.134;11.576;2023-07-20T11:24:04;100658.72;;;24.60;57.75
18500;BME280;9379;52.134;11.576;2023-07-20T11:26:39;100666.09;;;26.33;57.33
18500;BME280;9379;52.134;11.576;2023-07-20T11:29:07;100656.22;;;26.79;53.61
18500;BME280;9379;52.134;11.576;2023-07-20T11:31:37;100663.47;;;25.92;52.97
18500;BME280;9379;52.134;11.576;2023-07-20T11:34:05;100666.19;;;25.92;51.99
18500;BME280;9379;52.134;11.576;2023-07-20T11:36:33;100654.25;;;26.74;54.34
18500;BME280;9379;52.134;11.576;2023-07-20T11:39:00;100653.31;;;26.45;57.68
18500;BME280;9379;52.134;11.576;2023-07-20T11:41:29;100655.09;;;26.05;54.70
18500;BME280;9379;52.134;11.576;2023-07-20T11:43:57;100647.66;;;25.28;54.41
18500;BME280;9379;52.134;11.576;2023-07-20T11:46:25;100651.84;;;25.43;53.57
18500;BME280;9379;52.134;11.576;2023-07-20T11:48:57;100658.56;;;25.10;52.12
18500;BME280;9379;52.134;11.576;2023-07-20T11:51:25;100650.78;;;24.40;55.11
18500;BME280;9379;52.134;11.576;2023-07-20T11:53:52;100654.13;;;25.57;52.13
18500;BME280;9379;52.134;11.576;2023-07-20T11:56:19;100657.09;;;26.21;52.67
18500;BME280;9379;52.134;11.576;2023-07-20T11:58:46;100661.50;;;26.45;52.54
18500;BME280;9379;52.134;11.576;2023-07-20T12:01:13;100649.03;;;26.61;49.51
18500;BME280;9379;52.134;11.576;2023-07-20T12:03:43;100662.09;;;26.48;51.65
18500;BME280;9379;52.134;11.576;2023-07-20T12:06:10;100642.88;;;25.54;51.66
18500;BME280;9379;52.134;11.576;2023-07-20T12:08:38;100653.22;;;26.52;52.16
18500;BME280;9379;52.134;11.576;2023-07-20T12:11:06;100660.53;;;27.15;52.32
18500;BME280;9379;52.134;11.576;2023-07-20T12:13:37;100647.38;;;25.48;54.11
18500;BME280;9379;52.134;11.576;2023-07-20T12:16:11;100655.16;;;24.96;55.43
18500;BME280;9379;52.134;11.576;2023-07-20T12:18:38;100637.72;;;24.31;55.50
18500;BME280;9379;52.134;11.576;2023-07-20T12:21:07;100653.91;;;24.81;54.59
18500;BME280;9379;52.134;11.576;2023-07-20T12:23:38;100645.25;;;25.50;52.92
18500;BME280;9379;52.134;11.576;2023-07-20T12:26:08;100654.84;;;26.30;52.64
18500;BME280;9379;52.134;11.576;2023-07-20T12:28:38;100641.19;;;25.71;52.34
18500;BME280;9379;52.134;11.576;2023-07-20T12:31:06;100642.91;;;26.42;54.70
18500;BME280;9379;52.134;11.576;2023-07-20T12:33:33;100643.13;;;26.29;52.04
18500;BME280;9379;52.134;11.576;2023-07-20T12:36:00;100644.75;;;25.12;55.03
18500;BME280;9379;52.134;11.576;2023-07-20T12:38:28;100636.84;;;25.52;53.49
18500;BME280;9379;52.134;11.576;2023-07-20T12:40:56;100642.16;;;26.24;51.33
18500;BME280;9379;52.134;11.576;2023-07-20T12:43:23;100628.41;;;25.42;53.20
18500;BME280;9379;52.134;11.576;2023-07-20T12:45:51;100637.19;;;25.14;50.96
18500;BME280;9379;52.134;11.576;2023-07-20T12:48:17;100644.06;;;25.16;53.38
18500;BME280;9379;52.134;11.576;2023-07-20T12:50:44;100627.03;;;25.51;52.05
18500;BME280;9379;52.134;11.576;2023-07-20T12:53:11;100631.63;;;26.15;52.35
18500;BME280;9379;52.134;11.576;2023-07-20T12:55:39;100628.19;;;26.20;52.95
18500;BME280;9379;52.134;11.576;2023-07-20T12:58:06;100636.84;;;25.22;54.14